Terminal Aerodrome Forecast
Issued by NWS Shreveport, LA

Home | Current Version | Previous Version | Text Only | Print | Product List | Glossary On
Versions: 1 2 3 4 5 6 7 8 9 10 11 12 13 14 15 16
000
FTUS44 KSHV 311100
TAFSHV
TAF
KSHV 311138Z 3112/0112 11007KT P6SM OVC150
     FM312300 13007KT P6SM BKN050
     FM010500 15010KT P6SM VCSH OVC015
     FM010700 16010KT 5SM -RA BR OVC009=

USA.gov is the U.S. government's official web portal to all federal, state and local government web resources and services.